Lavallette, NJ

8:43 AM EDT on September 05, 2015 (GMT -0400)
Bell Crest | | Change Station
CLOSE
Current Station
Personal Weather Station
Location: Toms River, NJ
Elevation: 26 ft
Nearby Weather Stations

Elev 26 ft 39.98 °N, 74.13 °W | Updated 53 seconds ago

Partly Cloudy
Partly Cloudy
70.5 °F
Feels Like 71 °F
N
0.0
Wind Variable Wind from SW
Gusts 5.0 mph

Today
High -- | Low -- °F
--% Chance of Precip.
Yesterday
High -- | Low -- °F
Precip. -- in
6:27 AM 7:21 PM
Waning Gibbous, 49% visible
Pressure 30.25 in
Visibility 10.0 miles
Clouds Scattered Clouds 2000 ft
Heat Index 71 °F
Dew Point 64 °F
Humidity 81%
Rainfall 0.00 in
Snow Depth Not available.
UV 2 out of 12
Pollen 9.20 out of 12
Air Quality Not available.
Flu Activity Not available.
METAR KMJX 051235Z AUTO 06010G15KT 10SM SCT020 22/16 A3025 RMK AO1
Pressure 30.25 in
Visibility 10.0 miles
Clouds Scattered Clouds 2000 ft
Heat Index 71 °F
Dew Point 64 °F
Humidity 81%
Rainfall 0.00 in
Snow Depth Not available.
UV 2 out of 12
Pollen 9.20 out of 12
Air Quality Not available.
Flu Activity Not available.
METAR KMJX 051235Z AUTO 06010G15KT 10SM SCT020 22/16 A3025 RMK AO1

10-Day Weather Forecast

×

Almanac

Astronomy

Sep. 05, 2015 Rise Set
Actual Time
Civil Twilight
Nautical Twilight
Astronomical Twilight
Moon
Length of Visible Light
Length of Day
Tomorrow will be .
, % of the Moon is Illuminated

Today's Extremes

State Highs State Lows

Community

WunderPhotos

Upload Photos

1,852,454 photos uploaded!

WunderBlogs® & News

Nearby

Air Quality

  Air Quality AQ Index Pollutant
Not available.

Snow Depth

Station Depth Elevation

Earthquake Activity

City Distance Mag. Time & Date
Minimum magnitude displayed is 2.5.

Coastal Water Temperatures

Place Temperature

Stations

Nearby Weather Stations

Station Location Temp. Windchill Dew Point Humidity Wind Precip. Elev Updated Type